Brunswick Golden Isles Airport
KBQK : now visible

Airfield :











YOU CAN JOIN US ON...

 
LOGIN :

Register | Disclaimer

   EN    FR    IT 

 









Legend :    VFR   Marginal VFR   IFR   Intensive IFR   Very Intensive IFR
Visi :
Ceiling :
>= 8 km
>= 3000ft
5 to 8 km
1000 to 3000 ft
1500m to 5 km
500 to 1000 ft
800 to 1500m
200 to 500 ft
< 800m
< 200 ft
Symbols :   Thunderstorms  Fog  Heavy snow  Heavy precipitations  Wind > 20 kt






- Airport Elevation : 26 ft
- IATA code : BQK


KBQK - Brunswick Golden Isles

CURRENT METAR :
  • 301555Z AUTO 22007KT 10SM CLR 31/24 A3001 RMK AO2 T03120244

EXPIRED METARs :
  • 301535Z AUTO 22008KT 10SM CLR 30/24 A3002 RMK AO2 T03010240
  • 301515Z AUTO 23008KT 5SM HZ CLR 30/24 A3002 RMK AO2 T02960240
  • 301455Z AUTO 21007KT 10SM CLR 29/24 A3003 RMK AO2 T02890242
  • 301435Z AUTO 24007KT 10SM CLR 29/24 A3004 RMK AO2 T02860245
  • 301415Z AUTO 24006KT 10SM CLR 29/25 A3003 RMK AO2 T02870247
  • 301355Z AUTO 26005KT 10SM CLR 29/25 A3003 RMK AO2 T02860247
  • 301335Z AUTO 24004KT 10SM SCT010 28/25 A3003 RMK AO2 T02800249
  • 301315Z AUTO 25003KT 10SM CLR 27/25 A3003 RMK AO2 T02740247

TAF N/A
KZJX FIR / North America



MET'MAP, your aeronautical weather chart ! - Copyright ORBIFLY December 2007 - Disclaimer

ORBIFLY MET'MAP TEAM :

Programming & Development : Alexandra Zaïnal
Concept & original design : Baudouin d'Aumeries
Assistance for programming : Marc-Olivier Méhu
Technical & hardware support : Manuel Goepfert

Contact : metmap@orbifly.com




SOURCES & CREDITS :

   NOAA       Earth
Advisory